sensor_id;sensor_type;location;lat;lon;timestamp;P1;durP1;ratioP1;P2;durP2;ratioP2
4182;SDS011;2105;52.300;9.182;2022-07-04T00:00:59;2.40;;;2.03;;
4182;SDS011;2105;52.300;9.182;2022-07-04T00:03:27;2.20;;;1.87;;
4182;SDS011;2105;52.300;9.182;2022-07-04T00:05:54;2.57;;;2.10;;
4182;SDS011;2105;52.300;9.182;2022-07-04T00:08:21;3.20;;;2.20;;
4182;SDS011;2105;52.300;9.182;2022-07-04T00:10:48;4.33;;;2.27;;
4182;SDS011;2105;52.300;9.182;2022-07-04T00:13:14;7.23;;;2.13;;
4182;SDS011;2105;52.300;9.182;2022-07-04T00:15:41;3.53;;;2.07;;
4182;SDS011;2105;52.300;9.182;2022-07-04T00:18:09;3.60;;;1.90;;
4182;SDS011;2105;52.300;9.182;2022-07-04T00:20:35;2.23;;;1.67;;
4182;SDS011;2105;52.300;9.182;2022-07-04T00:23:02;5.13;;;2.00;;
4182;SDS011;2105;52.300;9.182;2022-07-04T00:25:29;2.80;;;1.80;;
4182;SDS011;2105;52.300;9.182;2022-07-04T00:27:55;5.13;;;1.80;;
4182;SDS011;2105;52.300;9.182;2022-07-04T00:30:22;3.13;;;1.97;;
4182;SDS011;2105;52.300;9.182;2022-07-04T00:32:49;5.37;;;2.20;;
4182;SDS011;2105;52.300;9.182;2022-07-04T00:35:17;5.10;;;2.50;;
4182;SDS011;2105;52.300;9.182;2022-07-04T00:37:43;2.97;;;2.43;;
4182;SDS011;2105;52.300;9.182;2022-07-04T00:40:10;3.30;;;2.30;;
4182;SDS011;2105;52.300;9.182;2022-07-04T00:42:37;6.00;;;2.43;;
4182;SDS011;2105;52.300;9.182;2022-07-04T00:45:04;3.77;;;2.20;;
4182;SDS011;2105;52.300;9.182;2022-07-04T00:47:32;5.10;;;2.60;;
4182;SDS011;2105;52.300;9.182;2022-07-04T00:49:58;7.13;;;2.60;;
4182;SDS011;2105;52.300;9.182;2022-07-04T00:52:26;3.83;;;2.50;;
4182;SDS011;2105;52.300;9.182;2022-07-04T00:54:54;2.97;;;2.53;;
4182;SDS011;2105;52.300;9.182;2022-07-04T00:57:21;3.10;;;2.50;;
4182;SDS011;2105;52.300;9.182;2022-07-04T00:59:48;3.67;;;2.43;;
4182;SDS011;2105;52.300;9.182;2022-07-04T01:02:15;4.87;;;2.50;;
4182;SDS011;2105;52.300;9.182;2022-07-04T01:04:41;4.33;;;2.10;;
4182;SDS011;2105;52.300;9.182;2022-07-04T01:07:08;6.47;;;2.40;;
4182;SDS011;2105;52.300;9.182;2022-07-04T01:09:39;8.17;;;2.83;;
4182;SDS011;2105;52.300;9.182;2022-07-04T01:12:06;7.70;;;2.53;;
4182;SDS011;2105;52.300;9.182;2022-07-04T01:14:36;5.47;;;3.10;;
4182;SDS011;2105;52.300;9.182;2022-07-04T01:17:03;5.83;;;2.30;;
4182;SDS011;2105;52.300;9.182;2022-07-04T01:19:30;2.90;;;2.27;;
4182;SDS011;2105;52.300;9.182;2022-07-04T01:21:58;2.90;;;2.30;;
4182;SDS011;2105;52.300;9.182;2022-07-04T01:24:31;6.87;;;2.73;;
4182;SDS011;2105;52.300;9.182;2022-07-04T01:26:57;4.27;;;2.50;;
4182;SDS011;2105;52.300;9.182;2022-07-04T01:29:24;5.90;;;2.73;;
4182;SDS011;2105;52.300;9.182;2022-07-04T01:31:51;4.37;;;2.30;;
4182;SDS011;2105;52.300;9.182;2022-07-04T01:34:18;4.40;;;2.60;;
4182;SDS011;2105;52.300;9.182;2022-07-04T01:36:45;4.90;;;2.70;;
4182;SDS011;2105;52.300;9.182;2022-07-04T01:39:13;5.70;;;2.50;;
4182;SDS011;2105;52.300;9.182;2022-07-04T01:41:39;6.50;;;2.20;;
4182;SDS011;2105;52.300;9.182;2022-07-04T01:44:06;4.37;;;2.60;;
4182;SDS011;2105;52.300;9.182;2022-07-04T01:46:33;4.47;;;2.20;;
4182;SDS011;2105;52.300;9.182;2022-07-04T01:48:59;4.00;;;3.00;;
4182;SDS011;2105;52.300;9.182;2022-07-04T01:51:26;7.43;;;2.83;;
4182;SDS011;2105;52.300;9.182;2022-07-04T01:53:53;4.30;;;2.60;;
4182;SDS011;2105;52.300;9.182;2022-07-04T01:56:20;8.40;;;3.07;;
4182;SDS011;2105;52.300;9.182;2022-07-04T01:58:47;7.00;;;3.00;;
4182;SDS011;2105;52.300;9.182;2022-07-04T02:01:14;10.40;;;2.80;;
4182;SDS011;2105;52.300;9.182;2022-07-04T02:03:55;8.53;;;2.60;;
4182;SDS011;2105;52.300;9.182;2022-07-04T02:06:22;4.63;;;3.07;;
4182;SDS011;2105;52.300;9.182;2022-07-04T02:08:48;6.00;;;3.27;;
4182;SDS011;2105;52.300;9.182;2022-07-04T02:11:34;6.63;;;3.07;;
4182;SDS011;2105;52.300;9.182;2022-07-04T02:14:14;5.37;;;3.47;;
4182;SDS011;2105;52.300;9.182;2022-07-04T02:16:41;4.90;;;3.23;;
4182;SDS011;2105;52.300;9.182;2022-07-04T02:19:08;4.10;;;3.27;;
4182;SDS011;2105;52.300;9.182;2022-07-04T02:21:34;5.57;;;2.50;;
4182;SDS011;2105;52.300;9.182;2022-07-04T02:24:01;5.70;;;2.90;;
4182;SDS011;2105;52.300;9.182;2022-07-04T02:26:28;4.97;;;2.80;;
4182;SDS011;2105;52.300;9.182;2022-07-04T02:28:56;3.40;;;2.67;;
4182;SDS011;2105;52.300;9.182;2022-07-04T02:31:23;5.80;;;3.10;;
4182;SDS011;2105;52.300;9.182;2022-07-04T02:33:50;4.40;;;3.00;;
4182;SDS011;2105;52.300;9.182;2022-07-04T02:36:17;9.23;;;2.93;;
4182;SDS011;2105;52.300;9.182;2022-07-04T02:38:43;4.10;;;2.70;;
4182;SDS011;2105;52.300;9.182;2022-07-04T02:41:10;5.60;;;3.53;;
4182;SDS011;2105;52.300;9.182;2022-07-04T02:43:36;3.93;;;3.37;;
4182;SDS011;2105;52.300;9.182;2022-07-04T02:46:04;6.30;;;3.93;;
4182;SDS011;2105;52.300;9.182;2022-07-04T02:48:31;4.80;;;3.10;;
4182;SDS011;2105;52.300;9.182;2022-07-04T02:50:58;9.73;;;3.80;;
4182;SDS011;2105;52.300;9.182;2022-07-04T02:53:24;9.90;;;3.33;;
4182;SDS011;2105;52.300;9.182;2022-07-04T02:55:51;5.07;;;3.73;;
4182;SDS011;2105;52.300;9.182;2022-07-04T02:58:18;6.37;;;3.43;;
4182;SDS011;2105;52.300;9.182;2022-07-04T03:00:45;8.63;;;3.80;;
4182;SDS011;2105;52.300;9.182;2022-07-04T03:03:12;6.03;;;4.03;;
4182;SDS011;2105;52.300;9.182;2022-07-04T03:05:39;7.37;;;4.07;;
4182;SDS011;2105;52.300;9.182;2022-07-04T03:08:06;12.90;;;5.50;;
4182;SDS011;2105;52.300;9.182;2022-07-04T03:10:32;4.33;;;3.40;;
4182;SDS011;2105;52.300;9.182;2022-07-04T03:12:59;6.73;;;3.97;;
4182;SDS011;2105;52.300;9.182;2022-07-04T03:15:26;5.20;;;3.80;;
4182;SDS011;2105;52.300;9.182;2022-07-04T03:17:52;8.60;;;4.00;;
4182;SDS011;2105;52.300;9.182;2022-07-04T03:20:20;4.90;;;3.90;;
4182;SDS011;2105;52.300;9.182;2022-07-04T03:22:47;4.83;;;4.33;;
4182;SDS011;2105;52.300;9.182;2022-07-04T03:25:16;8.83;;;4.23;;
4182;SDS011;2105;52.300;9.182;2022-07-04T03:27:43;14.57;;;4.43;;
4182;SDS011;2105;52.300;9.182;2022-07-04T03:30:10;14.17;;;4.20;;
4182;SDS011;2105;52.300;9.182;2022-07-04T03:32:37;10.73;;;3.97;;
4182;SDS011;2105;52.300;9.182;2022-07-04T03:35:04;15.30;;;3.90;;
4182;SDS011;2105;52.300;9.182;2022-07-04T03:37:33;6.83;;;4.00;;
4182;SDS011;2105;52.300;9.182;2022-07-04T03:39:59;12.93;;;4.63;;
4182;SDS011;2105;52.300;9.182;2022-07-04T03:42:26;14.30;;;4.47;;
4182;SDS011;2105;52.300;9.182;2022-07-04T03:44:53;21.17;;;4.90;;
4182;SDS011;2105;52.300;9.182;2022-07-04T03:47:19;13.17;;;3.60;;
4182;SDS011;2105;52.300;9.182;2022-07-04T03:49:46;6.73;;;3.57;;
4182;SDS011;2105;52.300;9.182;2022-07-04T03:52:12;8.27;;;3.80;;
4182;SDS011;2105;52.300;9.182;2022-07-04T03:54:40;9.87;;;4.83;;
4182;SDS011;2105;52.300;9.182;2022-07-04T03:57:07;6.93;;;4.57;;
4182;SDS011;2105;52.300;9.182;2022-07-04T03:59:34;5.17;;;4.10;;
4182;SDS011;2105;52.300;9.182;2022-07-04T04:02:00;7.37;;;4.47;;
4182;SDS011;2105;52.300;9.182;2022-07-04T04:04:27;5.30;;;4.10;;
4182;SDS011;2105;52.300;9.182;2022-07-04T04:07:11;6.63;;;4.10;;
4182;SDS011;2105;52.300;9.182;2022-07-04T04:09:38;11.20;;;4.73;;
4182;SDS011;2105;52.300;9.182;2022-07-04T04:12:06;11.87;;;5.07;;
4182;SDS011;2105;52.300;9.182;2022-07-04T04:14:33;6.90;;;4.40;;
4182;SDS011;2105;52.300;9.182;2022-07-04T04:17:00;8.33;;;4.50;;
4182;SDS011;2105;52.300;9.182;2022-07-04T04:19:27;8.70;;;4.93;;
4182;SDS011;2105;52.300;9.182;2022-07-04T04:21:53;7.40;;;4.53;;
4182;SDS011;2105;52.300;9.182;2022-07-04T04:24:20;9.30;;;4.90;;
4182;SDS011;2105;52.300;9.182;2022-07-04T04:26:47;6.33;;;4.83;;
4182;SDS011;2105;52.300;9.182;2022-07-04T04:29:15;9.47;;;5.33;;
4182;SDS011;2105;52.300;9.182;2022-07-04T04:31:41;11.13;;;5.20;;
4182;SDS011;2105;52.300;9.182;2022-07-04T04:34:08;11.90;;;5.80;;
4182;SDS011;2105;52.300;9.182;2022-07-04T04:36:35;6.80;;;5.50;;
4182;SDS011;2105;52.300;9.182;2022-07-04T04:39:01;11.03;;;5.80;;
4182;SDS011;2105;52.300;9.182;2022-07-04T04:41:28;10.80;;;5.60;;
4182;SDS011;2105;52.300;9.182;2022-07-04T04:43:55;10.27;;;6.47;;
4182;SDS011;2105;52.300;9.182;2022-07-04T04:46:23;7.90;;;5.60;;
4182;SDS011;2105;52.300;9.182;2022-07-04T04:48:50;11.33;;;5.53;;
4182;SDS011;2105;52.300;9.182;2022-07-04T04:51:16;9.83;;;5.73;;
4182;SDS011;2105;52.300;9.182;2022-07-04T04:53:43;7.20;;;5.80;;
4182;SDS011;2105;52.300;9.182;2022-07-04T04:56:10;10.33;;;5.90;;
4182;SDS011;2105;52.300;9.182;2022-07-04T04:58:36;10.50;;;6.37;;
4182;SDS011;2105;52.300;9.182;2022-07-04T05:01:04;7.63;;;5.73;;
4182;SDS011;2105;52.300;9.182;2022-07-04T05:03:32;10.53;;;6.10;;
4182;SDS011;2105;52.300;9.182;2022-07-04T05:05:59;14.00;;;6.83;;
4182;SDS011;2105;52.300;9.182;2022-07-04T05:08:25;13.23;;;6.60;;
4182;SDS011;2105;52.300;9.182;2022-07-04T05:10:52;9.17;;;6.40;;
4182;SDS011;2105;52.300;9.182;2022-07-04T05:13:20;9.53;;;6.47;;
4182;SDS011;2105;52.300;9.182;2022-07-04T05:15:47;10.80;;;6.63;;
4182;SDS011;2105;52.300;9.182;2022-07-04T05:18:13;10.37;;;6.33;;
4182;SDS011;2105;52.300;9.182;2022-07-04T05:20:42;13.13;;;6.80;;
4182;SDS011;2105;52.300;9.182;2022-07-04T05:23:08;8.33;;;6.67;;
4182;SDS011;2105;52.300;9.182;2022-07-04T05:25:35;10.80;;;7.13;;
4182;SDS011;2105;52.300;9.182;2022-07-04T05:28:02;9.83;;;6.80;;
4182;SDS011;2105;52.300;9.182;2022-07-04T05:30:29;19.00;;;7.53;;
4182;SDS011;2105;52.300;9.182;2022-07-04T05:32:55;9.37;;;6.73;;
4182;SDS011;2105;52.300;9.182;2022-07-04T05:35:23;10.10;;;6.50;;
4182;SDS011;2105;52.300;9.182;2022-07-04T05:37:51;10.20;;;6.80;;
4182;SDS011;2105;52.300;9.182;2022-07-04T05:40:17;12.53;;;6.37;;
4182;SDS011;2105;52.300;9.182;2022-07-04T05:42:46;15.30;;;5.73;;
4182;SDS011;2105;52.300;9.182;2022-07-04T05:45:13;7.10;;;5.37;;
4182;SDS011;2105;52.300;9.182;2022-07-04T05:47:40;5.20;;;3.97;;
4182;SDS011;2105;52.300;9.182;2022-07-04T05:50:07;6.93;;;5.23;;
4182;SDS011;2105;52.300;9.182;2022-07-04T05:52:34;8.73;;;5.03;;
4182;SDS011;2105;52.300;9.182;2022-07-04T05:55:02;7.77;;;4.50;;
4182;SDS011;2105;52.300;9.182;2022-07-04T05:57:31;8.27;;;4.03;;
4182;SDS011;2105;52.300;9.182;2022-07-04T05:59:58;7.23;;;3.83;;
4182;SDS011;2105;52.300;9.182;2022-07-04T06:02:25;10.30;;;4.00;;
4182;SDS011;2105;52.300;9.182;2022-07-04T06:04:51;8.37;;;4.43;;
4182;SDS011;2105;52.300;9.182;2022-07-04T06:07:18;4.23;;;2.97;;
4182;SDS011;2105;52.300;9.182;2022-07-04T06:09:45;5.77;;;3.40;;
4182;SDS011;2105;52.300;9.182;2022-07-04T06:12:13;7.80;;;3.40;;
4182;SDS011;2105;52.300;9.182;2022-07-04T06:14:39;4.90;;;2.90;;
4182;SDS011;2105;52.300;9.182;2022-07-04T06:17:06;8.50;;;3.90;;
4182;SDS011;2105;52.300;9.182;2022-07-04T06:19:33;6.70;;;3.77;;
4182;SDS011;2105;52.300;9.182;2022-07-04T06:21:59;10.73;;;4.13;;
4182;SDS011;2105;52.300;9.182;2022-07-04T06:24:26;7.50;;;3.53;;
4182;SDS011;2105;52.300;9.182;2022-07-04T06:26:53;14.43;;;4.87;;
4182;SDS011;2105;52.300;9.182;2022-07-04T06:29:21;10.00;;;4.50;;
4182;SDS011;2105;52.300;9.182;2022-07-04T06:31:47;6.87;;;3.90;;
4182;SDS011;2105;52.300;9.182;2022-07-04T06:34:14;6.13;;;4.10;;
4182;SDS011;2105;52.300;9.182;2022-07-04T06:36:58;7.20;;;5.20;;
4182;SDS011;2105;52.300;9.182;2022-07-04T06:39:25;7.33;;;4.73;;
4182;SDS011;2105;52.300;9.182;2022-07-04T06:41:51;7.60;;;4.10;;
4182;SDS011;2105;52.300;9.182;2022-07-04T06:44:18;7.90;;;3.37;;
4182;SDS011;2105;52.300;9.182;2022-07-04T06:46:46;14.47;;;4.50;;
4182;SDS011;2105;52.300;9.182;2022-07-04T06:49:13;7.17;;;3.20;;
4182;SDS011;2105;52.300;9.182;2022-07-04T06:51:39;7.43;;;2.70;;
4182;SDS011;2105;52.300;9.182;2022-07-04T06:54:06;4.60;;;3.17;;
4182;SDS011;2105;52.300;9.182;2022-07-04T06:56:32;10.40;;;3.50;;
4182;SDS011;2105;52.300;9.182;2022-07-04T06:58:59;6.23;;;3.27;;
4182;SDS011;2105;52.300;9.182;2022-07-04T07:01:28;8.30;;;4.13;;
4182;SDS011;2105;52.300;9.182;2022-07-04T07:03:56;8.27;;;3.70;;
4182;SDS011;2105;52.300;9.182;2022-07-04T07:06:22;11.10;;;3.80;;
4182;SDS011;2105;52.300;9.182;2022-07-04T07:08:49;6.27;;;3.17;;
4182;SDS011;2105;52.300;9.182;2022-07-04T07:11:16;4.27;;;2.70;;
4182;SDS011;2105;52.300;9.182;2022-07-04T07:13:45;9.77;;;3.30;;
4182;SDS011;2105;52.300;9.182;2022-07-04T07:16:13;5.67;;;3.43;;
4182;SDS011;2105;52.300;9.182;2022-07-04T07:18:40;5.50;;;3.20;;
4182;SDS011;2105;52.300;9.182;2022-07-04T07:21:08;5.07;;;2.93;;
4182;SDS011;2105;52.300;9.182;2022-07-04T07:23:37;7.70;;;3.03;;
4182;SDS011;2105;52.300;9.182;2022-07-04T07:26:04;4.80;;;2.80;;
4182;SDS011;2105;52.300;9.182;2022-07-04T07:28:31;3.27;;;2.30;;
4182;SDS011;2105;52.300;9.182;2022-07-04T07:30:57;4.03;;;2.33;;
4182;SDS011;2105;52.300;9.182;2022-07-04T07:33:24;4.87;;;2.70;;
4182;SDS011;2105;52.300;9.182;2022-07-04T07:35:51;4.60;;;2.20;;
4182;SDS011;2105;52.300;9.182;2022-07-04T07:38:19;8.10;;;2.70;;
4182;SDS011;2105;52.300;9.182;2022-07-04T07:40:46;5.30;;;2.20;;
4182;SDS011;2105;52.300;9.182;2022-07-04T07:43:12;4.17;;;2.17;;
4182;SDS011;2105;52.300;9.182;2022-07-04T07:45:39;8.80;;;2.23;;
4182;SDS011;2105;52.300;9.182;2022-07-04T07:48:06;4.30;;;1.90;;
4182;SDS011;2105;52.300;9.182;2022-07-04T07:50:33;3.27;;;1.63;;
4182;SDS011;2105;52.300;9.182;2022-07-04T07:52:59;8.40;;;1.97;;
4182;SDS011;2105;52.300;9.182;2022-07-04T07:55:27;6.20;;;1.57;;
4182;SDS011;2105;52.300;9.182;2022-07-04T07:57:54;7.80;;;2.10;;
4182;SDS011;2105;52.300;9.182;2022-07-04T08:00:23;10.30;;;1.70;;
4182;SDS011;2105;52.300;9.182;2022-07-04T08:02:49;4.40;;;1.90;;
4182;SDS011;2105;52.300;9.182;2022-07-04T08:05:33;4.23;;;1.73;;
4182;SDS011;2105;52.300;9.182;2022-07-04T08:08:01;2.90;;;2.20;;
4182;SDS011;2105;52.300;9.182;2022-07-04T08:10:29;5.37;;;2.30;;
4182;SDS011;2105;52.300;9.182;2022-07-04T08:12:56;2.33;;;1.93;;
4182;SDS011;2105;52.300;9.182;2022-07-04T08:15:23;12.23;;;2.43;;
4182;SDS011;2105;52.300;9.182;2022-07-04T08:17:51;5.77;;;2.70;;
4182;SDS011;2105;52.300;9.182;2022-07-04T08:20:18;3.20;;;2.70;;
4182;SDS011;2105;52.300;9.182;2022-07-04T08:22:45;3.07;;;2.77;;
4182;SDS011;2105;52.300;9.182;2022-07-04T08:25:11;10.03;;;2.50;;
4182;SDS011;2105;52.300;9.182;2022-07-04T08:27:40;4.60;;;2.80;;
4182;SDS011;2105;52.300;9.182;2022-07-04T08:30:07;6.80;;;2.80;;
4182;SDS011;2105;52.300;9.182;2022-07-04T08:32:35;4.33;;;3.30;;
4182;SDS011;2105;52.300;9.182;2022-07-04T08:35:02;5.37;;;3.90;;
4182;SDS011;2105;52.300;9.182;2022-07-04T08:37:29;5.17;;;3.90;;
4182;SDS011;2105;52.300;9.182;2022-07-04T08:39:56;5.10;;;3.67;;
4182;SDS011;2105;52.300;9.182;2022-07-04T08:42:22;5.27;;;3.43;;
4182;SDS011;2105;52.300;9.182;2022-07-04T08:44:51;3.70;;;3.40;;
4182;SDS011;2105;52.300;9.182;2022-07-04T08:47:20;5.20;;;3.70;;
4182;SDS011;2105;52.300;9.182;2022-07-04T08:49:50;4.27;;;3.50;;
4182;SDS011;2105;52.300;9.182;2022-07-04T08:52:23;4.00;;;3.60;;
4182;SDS011;2105;52.300;9.182;2022-07-04T08:55:00;4.90;;;4.40;;
4182;SDS011;2105;52.300;9.182;2022-07-04T08:57:45;4.90;;;4.53;;
4182;SDS011;2105;52.300;9.182;2022-07-04T09:00:32;4.30;;;4.00;;
4182;SDS011;2105;52.300;9.182;2022-07-04T09:02:59;9.40;;;4.47;;
4182;SDS011;2105;52.300;9.182;2022-07-04T09:05:28;4.57;;;4.17;;
4182;SDS011;2105;52.300;9.182;2022-07-04T09:07:57;4.43;;;4.03;;
4182;SDS011;2105;52.300;9.182;2022-07-04T09:10:24;3.80;;;3.60;;
4182;SDS011;2105;52.300;9.182;2022-07-04T09:12:51;6.93;;;3.90;;
4182;SDS011;2105;52.300;9.182;2022-07-04T09:15:18;4.40;;;4.00;;
4182;SDS011;2105;52.300;9.182;2022-07-04T09:17:47;5.10;;;4.33;;
4182;SDS011;2105;52.300;9.182;2022-07-04T09:20:14;4.40;;;3.80;;
4182;SDS011;2105;52.300;9.182;2022-07-04T09:22:42;4.87;;;4.30;;
4182;SDS011;2105;52.300;9.182;2022-07-04T09:25:09;8.97;;;4.90;;
4182;SDS011;2105;52.300;9.182;2022-07-04T09:27:40;5.23;;;4.20;;
4182;SDS011;2105;52.300;9.182;2022-07-04T09:30:09;5.50;;;5.20;;
4182;SDS011;2105;52.300;9.182;2022-07-04T09:32:38;7.23;;;4.90;;
4182;SDS011;2105;52.300;9.182;2022-07-04T09:35:08;5.40;;;4.73;;
4182;SDS011;2105;52.300;9.182;2022-07-04T09:37:36;5.80;;;5.30;;
4182;SDS011;2105;52.300;9.182;2022-07-04T09:40:05;5.10;;;4.60;;
4182;SDS011;2105;52.300;9.182;2022-07-04T09:42:35;6.33;;;4.57;;
4182;SDS011;2105;52.300;9.182;2022-07-04T09:45:06;5.73;;;5.20;;
4182;SDS011;2105;52.300;9.182;2022-07-04T09:47:35;5.87;;;5.27;;
4182;SDS011;2105;52.300;9.182;2022-07-04T09:50:03;5.60;;;5.10;;
4182;SDS011;2105;52.300;9.182;2022-07-04T09:52:33;5.03;;;4.53;;
4182;SDS011;2105;52.300;9.182;2022-07-04T09:55:10;5.20;;;4.80;;
4182;SDS011;2105;52.300;9.182;2022-07-04T09:57:37;5.70;;;5.10;;
4182;SDS011;2105;52.300;9.182;2022-07-04T10:00:20;5.00;;;4.50;;
4182;SDS011;2105;52.300;9.182;2022-07-04T10:02:48;6.00;;;5.50;;
4182;SDS011;2105;52.300;9.182;2022-07-04T10:05:22;5.63;;;4.73;;
4182;SDS011;2105;52.300;9.182;2022-07-04T10:07:51;6.77;;;5.90;;
4182;SDS011;2105;52.300;9.182;2022-07-04T10:10:21;6.50;;;5.90;;
4182;SDS011;2105;52.300;9.182;2022-07-04T10:12:49;6.60;;;6.07;;
4182;SDS011;2105;52.300;9.182;2022-07-04T10:15:16;6.07;;;5.57;;
4182;SDS011;2105;52.300;9.182;2022-07-04T10:17:43;6.20;;;5.80;;
4182;SDS011;2105;52.300;9.182;2022-07-04T10:20:10;7.50;;;6.27;;
4182;SDS011;2105;52.300;9.182;2022-07-04T10:22:38;5.67;;;5.17;;
4182;SDS011;2105;52.300;9.182;2022-07-04T10:25:07;6.73;;;5.73;;
4182;SDS011;2105;52.300;9.182;2022-07-04T10:27:35;7.23;;;5.90;;
4182;SDS011;2105;52.300;9.182;2022-07-04T10:30:04;6.00;;;5.07;;
4182;SDS011;2105;52.300;9.182;2022-07-04T10:32:32;5.43;;;5.03;;
4182;SDS011;2105;52.300;9.182;2022-07-04T10:34:59;5.27;;;4.90;;
4182;SDS011;2105;52.300;9.182;2022-07-04T10:40:42;8.40;;;4.90;;
4182;SDS011;2105;52.300;9.182;2022-07-04T10:48:55;7.10;;;6.53;;
4182;SDS011;2105;52.300;9.182;2022-07-04T10:51:33;5.70;;;5.20;;
4182;SDS011;2105;52.300;9.182;2022-07-04T10:54:03;6.70;;;6.20;;
4182;SDS011;2105;52.300;9.182;2022-07-04T10:56:37;9.07;;;5.77;;
4182;SDS011;2105;52.300;9.182;2022-07-04T10:59:10;6.03;;;5.63;;
4182;SDS011;2105;52.300;9.182;2022-07-04T11:01:38;7.20;;;6.33;;
4182;SDS011;2105;52.300;9.182;2022-07-04T11:04:10;6.40;;;5.90;;
4182;SDS011;2105;52.300;9.182;2022-07-04T11:06:52;9.87;;;8.87;;
4182;SDS011;2105;52.300;9.182;2022-07-04T11:09:20;6.00;;;5.20;;
4182;SDS011;2105;52.300;9.182;2022-07-04T11:11:49;6.43;;;5.90;;
4182;SDS011;2105;52.300;9.182;2022-07-04T11:14:34;6.53;;;6.13;;
4182;SDS011;2105;52.300;9.182;2022-07-04T11:17:05;6.93;;;6.43;;
4182;SDS011;2105;52.300;9.182;2022-07-04T11:19:33;7.27;;;6.63;;
4182;SDS011;2105;52.300;9.182;2022-07-04T11:22:00;8.13;;;6.50;;
4182;SDS011;2105;52.300;9.182;2022-07-04T11:24:27;6.90;;;6.43;;
4182;SDS011;2105;52.300;9.182;2022-07-04T11:26:55;7.47;;;6.00;;
4182;SDS011;2105;52.300;9.182;2022-07-04T11:29:23;7.00;;;6.40;;
4182;SDS011;2105;52.300;9.182;2022-07-04T11:31:50;6.67;;;6.00;;
4182;SDS011;2105;52.300;9.182;2022-07-04T11:34:18;6.30;;;5.90;;
4182;SDS011;2105;52.300;9.182;2022-07-04T11:36:46;5.90;;;5.40;;
4182;SDS011;2105;52.300;9.182;2022-07-04T11:39:14;6.17;;;5.50;;
4182;SDS011;2105;52.300;9.182;2022-07-04T11:41:44;6.87;;;6.37;;
4182;SDS011;2105;52.300;9.182;2022-07-04T11:44:32;6.47;;;5.97;;
4182;SDS011;2105;52.300;9.182;2022-07-04T11:47:18;6.27;;;5.77;;
4182;SDS011;2105;52.300;9.182;2022-07-04T11:49:47;6.23;;;5.77;;
4182;SDS011;2105;52.300;9.182;2022-07-04T11:52:17;7.23;;;6.70;;
4182;SDS011;2105;52.300;9.182;2022-07-04T11:54:45;7.47;;;6.87;;
4182;SDS011;2105;52.300;9.182;2022-07-04T11:57:17;7.80;;;6.70;;
4182;SDS011;2105;52.300;9.182;2022-07-04T11:59:53;6.90;;;6.30;;
4182;SDS011;2105;52.300;9.182;2022-07-04T12:02:22;6.20;;;5.70;;
4182;SDS011;2105;52.300;9.182;2022-07-04T12:04:48;7.80;;;6.07;;
4182;SDS011;2105;52.300;9.182;2022-07-04T12:07:15;6.53;;;5.87;;
4182;SDS011;2105;52.300;9.182;2022-07-04T12:09:44;6.33;;;5.83;;
4182;SDS011;2105;52.300;9.182;2022-07-04T12:12:12;6.57;;;6.17;;
4182;SDS011;2105;52.300;9.182;2022-07-04T12:14:48;20.73;;;7.33;;
4182;SDS011;2105;52.300;9.182;2022-07-04T12:17:28;7.23;;;6.50;;
4182;SDS011;2105;52.300;9.182;2022-07-04T12:19:57;8.57;;;6.63;;
4182;SDS011;2105;52.300;9.182;2022-07-04T12:22:36;5.97;;;5.47;;
4182;SDS011;2105;52.300;9.182;2022-07-04T12:25:05;6.60;;;6.00;;
4182;SDS011;2105;52.300;9.182;2022-07-04T12:27:35;8.67;;;5.73;;
4182;SDS011;2105;52.300;9.182;2022-07-04T12:30:04;7.10;;;5.47;;
4182;SDS011;2105;52.300;9.182;2022-07-04T12:32:43;6.73;;;6.23;;
4182;SDS011;2105;52.300;9.182;2022-07-04T12:38:13;6.53;;;6.03;;
4182;SDS011;2105;52.300;9.182;2022-07-04T12:43:45;8.60;;;6.60;;
4182;SDS011;2105;52.300;9.182;2022-07-04T12:46:25;7.50;;;6.80;;
4182;SDS011;2105;52.300;9.182;2022-07-04T12:48:54;11.00;;;6.90;;
4182;SDS011;2105;52.300;9.182;2022-07-04T12:51:23;7.07;;;6.37;;
4182;SDS011;2105;52.300;9.182;2022-07-04T12:53:52;8.27;;;6.83;;
4182;SDS011;2105;52.300;9.182;2022-07-04T12:56:27;6.87;;;6.37;;
4182;SDS011;2105;52.300;9.182;2022-07-04T12:58:55;12.50;;;7.00;;
4182;SDS011;2105;52.300;9.182;2022-07-04T13:01:23;6.97;;;6.57;;
4182;SDS011;2105;52.300;9.182;2022-07-04T13:03:50;7.50;;;6.80;;
4182;SDS011;2105;52.300;9.182;2022-07-04T13:06:17;7.60;;;6.80;;
4182;SDS011;2105;52.300;9.182;2022-07-04T13:08:43;12.13;;;7.40;;
4182;SDS011;2105;52.300;9.182;2022-07-04T13:11:10;7.33;;;6.77;;
4182;SDS011;2105;52.300;9.182;2022-07-04T13:13:54;8.00;;;7.40;;
4182;SDS011;2105;52.300;9.182;2022-07-04T13:16:21;7.90;;;7.20;;
4182;SDS011;2105;52.300;9.182;2022-07-04T13:18:49;7.50;;;7.00;;
4182;SDS011;2105;52.300;9.182;2022-07-04T13:21:16;8.07;;;7.40;;
4182;SDS011;2105;52.300;9.182;2022-07-04T13:23:43;7.70;;;7.20;;
4182;SDS011;2105;52.300;9.182;2022-07-04T13:26:09;7.77;;;7.27;;
4182;SDS011;2105;52.300;9.182;2022-07-04T13:28:36;7.50;;;6.90;;
4182;SDS011;2105;52.300;9.182;2022-07-04T13:31:03;9.03;;;7.40;;
4182;SDS011;2105;52.300;9.182;2022-07-04T13:33:31;8.83;;;7.70;;
4182;SDS011;2105;52.300;9.182;2022-07-04T13:35:58;7.83;;;7.43;;
4182;SDS011;2105;52.300;9.182;2022-07-04T13:38:25;8.07;;;7.57;;
4182;SDS011;2105;52.300;9.182;2022-07-04T13:40:52;7.50;;;7.00;;
4182;SDS011;2105;52.300;9.182;2022-07-04T13:43:20;8.07;;;7.57;;
4182;SDS011;2105;52.300;9.182;2022-07-04T13:45:47;7.87;;;7.00;;
4182;SDS011;2105;52.300;9.182;2022-07-04T13:48:14;7.90;;;7.30;;
4182;SDS011;2105;52.300;9.182;2022-07-04T13:50:42;8.20;;;7.40;;
4182;SDS011;2105;52.300;9.182;2022-07-04T13:53:09;8.37;;;7.77;;
4182;SDS011;2105;52.300;9.182;2022-07-04T13:55:35;8.30;;;7.70;;
4182;SDS011;2105;52.300;9.182;2022-07-04T13:58:03;8.30;;;7.70;;
4182;SDS011;2105;52.300;9.182;2022-07-04T14:00:31;8.17;;;7.60;;
4182;SDS011;2105;52.300;9.182;2022-07-04T14:02:57;8.37;;;7.77;;
4182;SDS011;2105;52.300;9.182;2022-07-04T14:05:25;8.00;;;7.30;;
4182;SDS011;2105;52.300;9.182;2022-07-04T14:07:53;8.10;;;7.30;;
4182;SDS011;2105;52.300;9.182;2022-07-04T14:10:20;8.00;;;7.37;;
4182;SDS011;2105;52.300;9.182;2022-07-04T14:12:47;7.80;;;7.10;;
4182;SDS011;2105;52.300;9.182;2022-07-04T14:15:14;7.90;;;7.40;;
4182;SDS011;2105;52.300;9.182;2022-07-04T14:17:40;8.07;;;7.57;;
4182;SDS011;2105;52.300;9.182;2022-07-04T14:20:08;8.40;;;7.70;;
4182;SDS011;2105;52.300;9.182;2022-07-04T14:22:36;9.10;;;7.27;;
4182;SDS011;2105;52.300;9.182;2022-07-04T14:25:05;7.70;;;7.30;;
4182;SDS011;2105;52.300;9.182;2022-07-04T14:27:33;7.40;;;6.77;;
4182;SDS011;2105;52.300;9.182;2022-07-04T14:30:00;7.90;;;7.40;;
4182;SDS011;2105;52.300;9.182;2022-07-04T14:32:27;7.77;;;7.17;;
4182;SDS011;2105;52.300;9.182;2022-07-04T14:34:54;7.87;;;7.37;;
4182;SDS011;2105;52.300;9.182;2022-07-04T14:37:20;7.97;;;7.37;;
4182;SDS011;2105;52.300;9.182;2022-07-04T14:39:47;7.93;;;7.30;;
4182;SDS011;2105;52.300;9.182;2022-07-04T14:42:15;6.47;;;6.00;;
4182;SDS011;2105;52.300;9.182;2022-07-04T14:44:42;12.30;;;7.40;;
4182;SDS011;2105;52.300;9.182;2022-07-04T14:47:09;7.50;;;6.90;;
4182;SDS011;2105;52.300;9.182;2022-07-04T14:49:36;7.97;;;7.27;;
4182;SDS011;2105;52.300;9.182;2022-07-04T14:52:02;7.40;;;6.90;;
4182;SDS011;2105;52.300;9.182;2022-07-04T14:54:30;7.50;;;6.87;;
4182;SDS011;2105;52.300;9.182;2022-07-04T14:56:56;7.17;;;6.60;;
4182;SDS011;2105;52.300;9.182;2022-07-04T14:59:25;7.87;;;7.20;;
4182;SDS011;2105;52.300;9.182;2022-07-04T15:01:51;8.13;;;7.43;;
4182;SDS011;2105;52.300;9.182;2022-07-04T15:04:19;8.20;;;7.40;;
4182;SDS011;2105;52.300;9.182;2022-07-04T15:06:45;10.43;;;7.30;;
4182;SDS011;2105;52.300;9.182;2022-07-04T15:09:12;7.37;;;6.87;;
4182;SDS011;2105;52.300;9.182;2022-07-04T15:11:39;7.77;;;7.07;;
4182;SDS011;2105;52.300;9.182;2022-07-04T15:14:06;7.50;;;6.90;;
4182;SDS011;2105;52.300;9.182;2022-07-04T15:16:34;7.80;;;7.10;;
4182;SDS011;2105;52.300;9.182;2022-07-04T15:19:00;7.80;;;7.30;;
4182;SDS011;2105;52.300;9.182;2022-07-04T15:21:27;7.50;;;6.90;;
4182;SDS011;2105;52.300;9.182;2022-07-04T15:24:11;8.60;;;7.77;;
4182;SDS011;2105;52.300;9.182;2022-07-04T15:26:39;8.20;;;7.70;;
4182;SDS011;2105;52.300;9.182;2022-07-04T15:29:07;8.77;;;8.00;;
4182;SDS011;2105;52.300;9.182;2022-07-04T15:31:35;8.10;;;7.60;;
4182;SDS011;2105;52.300;9.182;2022-07-04T15:34:01;7.67;;;7.07;;